<?xml version="1.0" encoding="UTF-8" standalone="no" ?>
<gpx xmlns="http://www.topografix.com/GPX/1/1" xmlns:xsi="http://www.w3.org/2001/XMLSchema-instance" xsi:schemaLocation="http://www.topografix.com/GPX/1/1 http://www.topografix.com/GPX/1/1/gpx.xsd" version="1.1" creator="VisuGPX - https://www.visugpx.com">
  <metadata>
    <name>83-V-Lorgues</name>
    <desc><![CDATA[83-V-Lorgues : vos crêpes - sur la piste des fûts

]]></desc>
  </metadata>
  <trk>
    <name><![CDATA[2019-02-15-V-ste béatrice crêpes ]]></name>
    <trkseg>
      <trkpt lat="43.46167" lon="6.38102">
        <ele>213.2</ele>
        <time>2019-02-15T12:47:44Z</time>
      </trkpt>
      <trkpt lat="43.46167" lon="6.38102">
        <ele>213.2</ele>
        <time>2019-02-15T12:47:45Z</time>
      </trkpt>
      <trkpt lat="43.46167" lon="6.38089">
        <ele>212.4</ele>
        <time>2019-02-15T12:48:24Z</time>
      </trkpt>
      <trkpt lat="43.46175" lon="6.38081">
        <ele>212.9</ele>
        <time>2019-02-15T12:51:20Z</time>
      </trkpt>
      <trkpt lat="43.46181" lon="6.38071">
        <ele>213.5</ele>
        <time>2019-02-15T12:51:29Z</time>
      </trkpt>
      <trkpt lat="43.46188" lon="6.3806">
        <ele>214</ele>
        <time>2019-02-15T12:51:38Z</time>
      </trkpt>
      <trkpt lat="43.46191" lon="6.38047">
        <ele>214.2</ele>
        <time>2019-02-15T12:51:47Z</time>
      </trkpt>
      <trkpt lat="43.46191" lon="6.38033">
        <ele>214.3</ele>
        <time>2019-02-15T12:51:55Z</time>
      </trkpt>
      <trkpt lat="43.46189" lon="6.3802">
        <ele>214.3</ele>
        <time>2019-02-15T12:52:03Z</time>
      </trkpt>
      <trkpt lat="43.46185" lon="6.38007">
        <ele>214.3</ele>
        <time>2019-02-15T12:52:11Z</time>
      </trkpt>
      <trkpt lat="43.46182" lon="6.37994">
        <ele>214</ele>
        <time>2019-02-15T12:52:20Z</time>
      </trkpt>
      <trkpt lat="43.46176" lon="6.37984">
        <ele>213.8</ele>
        <time>2019-02-15T12:52:28Z</time>
      </trkpt>
      <trkpt lat="43.4617" lon="6.37973">
        <ele>213.9</ele>
        <time>2019-02-15T12:52:37Z</time>
      </trkpt>
      <trkpt lat="43.46165" lon="6.37962">
        <ele>214.5</ele>
        <time>2019-02-15T12:52:47Z</time>
      </trkpt>
      <trkpt lat="43.46158" lon="6.37953">
        <ele>215.6</ele>
        <time>2019-02-15T12:52:56Z</time>
      </trkpt>
      <trkpt lat="43.46151" lon="6.37946">
        <ele>216.3</ele>
        <time>2019-02-15T12:53:04Z</time>
      </trkpt>
      <trkpt lat="43.46143" lon="6.37939">
        <ele>217.5</ele>
        <time>2019-02-15T12:53:12Z</time>
      </trkpt>
      <trkpt lat="43.46135" lon="6.37933">
        <ele>217.8</ele>
        <time>2019-02-15T12:53:24Z</time>
      </trkpt>
      <trkpt lat="43.46126" lon="6.37929">
        <ele>218.1</ele>
        <time>2019-02-15T12:57:00Z</time>
      </trkpt>
      <trkpt lat="43.46122" lon="6.37917">
        <ele>217.6</ele>
        <time>2019-02-15T12:57:09Z</time>
      </trkpt>
      <trkpt lat="43.46126" lon="6.37904">
        <ele>217.5</ele>
        <time>2019-02-15T12:57:17Z</time>
      </trkpt>
      <trkpt lat="43.46132" lon="6.37892">
        <ele>217</ele>
        <time>2019-02-15T12:57:26Z</time>
      </trkpt>
      <trkpt lat="43.46138" lon="6.37882">
        <ele>216.9</ele>
        <time>2019-02-15T12:57:35Z</time>
      </trkpt>
      <trkpt lat="43.46139" lon="6.3787">
        <ele>216.9</ele>
        <time>2019-02-15T12:57:44Z</time>
      </trkpt>
      <trkpt lat="43.46137" lon="6.37857">
        <ele>217.1</ele>
        <time>2019-02-15T12:57:52Z</time>
      </trkpt>
      <trkpt lat="43.46132" lon="6.37846">
        <ele>215.7</ele>
        <time>2019-02-15T12:58:03Z</time>
      </trkpt>
      <trkpt lat="43.46125" lon="6.37837">
        <ele>214.8</ele>
        <time>2019-02-15T12:58:11Z</time>
      </trkpt>
      <trkpt lat="43.46119" lon="6.37826">
        <ele>213.5</ele>
        <time>2019-02-15T12:58:19Z</time>
      </trkpt>
      <trkpt lat="43.46115" lon="6.37815">
        <ele>212.5</ele>
        <time>2019-02-15T12:58:30Z</time>
      </trkpt>
      <trkpt lat="43.46115" lon="6.37803">
        <ele>211.7</ele>
        <time>2019-02-15T12:58:40Z</time>
      </trkpt>
      <trkpt lat="43.46117" lon="6.37791">
        <ele>211.1</ele>
        <time>2019-02-15T12:58:48Z</time>
      </trkpt>
      <trkpt lat="43.46119" lon="6.37778">
        <ele>211.1</ele>
        <time>2019-02-15T12:58:57Z</time>
      </trkpt>
      <trkpt lat="43.46116" lon="6.37765">
        <ele>211</ele>
        <time>2019-02-15T12:59:05Z</time>
      </trkpt>
      <trkpt lat="43.46111" lon="6.37754">
        <ele>211.1</ele>
        <time>2019-02-15T12:59:13Z</time>
      </trkpt>
      <trkpt lat="43.46105" lon="6.37743">
        <ele>211.1</ele>
        <time>2019-02-15T12:59:19Z</time>
      </trkpt>
      <trkpt lat="43.46102" lon="6.37731">
        <ele>210.6</ele>
        <time>2019-02-15T12:59:28Z</time>
      </trkpt>
      <trkpt lat="43.46104" lon="6.37718">
        <ele>211.8</ele>
        <time>2019-02-15T12:59:39Z</time>
      </trkpt>
      <trkpt lat="43.46098" lon="6.37706">
        <ele>212.7</ele>
        <time>2019-02-15T12:59:51Z</time>
      </trkpt>
      <trkpt lat="43.46093" lon="6.37696">
        <ele>213.1</ele>
        <time>2019-02-15T13:00:00Z</time>
      </trkpt>
      <trkpt lat="43.46087" lon="6.37685">
        <ele>214.4</ele>
        <time>2019-02-15T13:00:09Z</time>
      </trkpt>
      <trkpt lat="43.46081" lon="6.37675">
        <ele>215.3</ele>
        <time>2019-02-15T13:00:19Z</time>
      </trkpt>
      <trkpt lat="43.46075" lon="6.37665">
        <ele>216.8</ele>
        <time>2019-02-15T13:00:31Z</time>
      </trkpt>
      <trkpt lat="43.46068" lon="6.37655">
        <ele>217.5</ele>
        <time>2019-02-15T13:00:40Z</time>
      </trkpt>
      <trkpt lat="43.46062" lon="6.37645">
        <ele>218</ele>
        <time>2019-02-15T13:00:49Z</time>
      </trkpt>
      <trkpt lat="43.46054" lon="6.37638">
        <ele>218.6</ele>
        <time>2019-02-15T13:00:57Z</time>
      </trkpt>
      <trkpt lat="43.46048" lon="6.37628">
        <ele>219.6</ele>
        <time>2019-02-15T13:01:25Z</time>
      </trkpt>
      <trkpt lat="43.46058" lon="6.37622">
        <ele>219.6</ele>
        <time>2019-02-15T13:02:18Z</time>
      </trkpt>
      <trkpt lat="43.46067" lon="6.37616">
        <ele>219.6</ele>
        <time>2019-02-15T13:02:27Z</time>
      </trkpt>
      <trkpt lat="43.46076" lon="6.37612">
        <ele>219.4</ele>
        <time>2019-02-15T13:02:34Z</time>
      </trkpt>
      <trkpt lat="43.46085" lon="6.37608">
        <ele>219.1</ele>
        <time>2019-02-15T13:02:42Z</time>
      </trkpt>
      <trkpt lat="43.46094" lon="6.37604">
        <ele>219.1</ele>
        <time>2019-02-15T13:02:50Z</time>
      </trkpt>
      <trkpt lat="43.46103" lon="6.37599">
        <ele>219.4</ele>
        <time>2019-02-15T13:02:57Z</time>
      </trkpt>
      <trkpt lat="43.46112" lon="6.37594">
        <ele>218.9</ele>
        <time>2019-02-15T13:03:06Z</time>
      </trkpt>
      <trkpt lat="43.46121" lon="6.37589">
        <ele>218.7</ele>
        <time>2019-02-15T13:03:15Z</time>
      </trkpt>
      <trkpt lat="43.4613" lon="6.37583">
        <ele>218.8</ele>
        <time>2019-02-15T13:03:23Z</time>
      </trkpt>
      <trkpt lat="43.46139" lon="6.37578">
        <ele>219</ele>
        <time>2019-02-15T13:03:31Z</time>
      </trkpt>
      <trkpt lat="43.46147" lon="6.37573">
        <ele>219.2</ele>
        <time>2019-02-15T13:03:39Z</time>
      </trkpt>
      <trkpt lat="43.46156" lon="6.37567">
        <ele>218.9</ele>
        <time>2019-02-15T13:03:48Z</time>
      </trkpt>
      <trkpt lat="43.46166" lon="6.37562">
        <ele>219.1</ele>
        <time>2019-02-15T13:03:56Z</time>
      </trkpt>
      <trkpt lat="43.46174" lon="6.37555">
        <ele>219.1</ele>
        <time>2019-02-15T13:04:03Z</time>
      </trkpt>
      <trkpt lat="43.46182" lon="6.37547">
        <ele>219.4</ele>
        <time>2019-02-15T13:04:11Z</time>
      </trkpt>
      <trkpt lat="43.4619" lon="6.3754">
        <ele>219.5</ele>
        <time>2019-02-15T13:04:19Z</time>
      </trkpt>
      <trkpt lat="43.46198" lon="6.37532">
        <ele>219.7</ele>
        <time>2019-02-15T13:04:26Z</time>
      </trkpt>
      <trkpt lat="43.46205" lon="6.37523">
        <ele>220.1</ele>
        <time>2019-02-15T13:04:34Z</time>
      </trkpt>
      <trkpt lat="43.46205" lon="6.3751">
        <ele>220.6</ele>
        <time>2019-02-15T13:04:51Z</time>
      </trkpt>
      <trkpt lat="43.46199" lon="6.37501">
        <ele>220.9</ele>
        <time>2019-02-15T13:04:59Z</time>
      </trkpt>
      <trkpt lat="43.46193" lon="6.37491">
        <ele>221.1</ele>
        <time>2019-02-15T13:05:07Z</time>
      </trkpt>
      <trkpt lat="43.46186" lon="6.37483">
        <ele>221.1</ele>
        <time>2019-02-15T13:05:15Z</time>
      </trkpt>
      <trkpt lat="43.46179" lon="6.37473">
        <ele>220.9</ele>
        <time>2019-02-15T13:05:23Z</time>
      </trkpt>
      <trkpt lat="43.46173" lon="6.37464">
        <ele>220.5</ele>
        <time>2019-02-15T13:05:31Z</time>
      </trkpt>
      <trkpt lat="43.46166" lon="6.37456">
        <ele>219.7</ele>
        <time>2019-02-15T13:05:40Z</time>
      </trkpt>
      <trkpt lat="43.46161" lon="6.37444">
        <ele>218.4</ele>
        <time>2019-02-15T13:05:48Z</time>
      </trkpt>
      <trkpt lat="43.46153" lon="6.37436">
        <ele>217.7</ele>
        <time>2019-02-15T13:05:56Z</time>
      </trkpt>
      <trkpt lat="43.46153" lon="6.37423">
        <ele>216.6</ele>
        <time>2019-02-15T13:06:07Z</time>
      </trkpt>
      <trkpt lat="43.46154" lon="6.3741">
        <ele>216.2</ele>
        <time>2019-02-15T13:06:16Z</time>
      </trkpt>
      <trkpt lat="43.46154" lon="6.37396">
        <ele>215.5</ele>
        <time>2019-02-15T13:06:24Z</time>
      </trkpt>
      <trkpt lat="43.46157" lon="6.37384">
        <ele>215</ele>
        <time>2019-02-15T13:06:32Z</time>
      </trkpt>
      <trkpt lat="43.46158" lon="6.3737">
        <ele>214.6</ele>
        <time>2019-02-15T13:06:41Z</time>
      </trkpt>
      <trkpt lat="43.4616" lon="6.37356">
        <ele>214.4</ele>
        <time>2019-02-15T13:06:49Z</time>
      </trkpt>
      <trkpt lat="43.46163" lon="6.37344">
        <ele>213.8</ele>
        <time>2019-02-15T13:06:56Z</time>
      </trkpt>
      <trkpt lat="43.46164" lon="6.37331">
        <ele>213.9</ele>
        <time>2019-02-15T13:07:06Z</time>
      </trkpt>
      <trkpt lat="43.46165" lon="6.37317">
        <ele>213.9</ele>
        <time>2019-02-15T13:07:14Z</time>
      </trkpt>
      <trkpt lat="43.46164" lon="6.37304">
        <ele>214.1</ele>
        <time>2019-02-15T13:07:22Z</time>
      </trkpt>
      <trkpt lat="43.46167" lon="6.37292">
        <ele>214.5</ele>
        <time>2019-02-15T13:07:30Z</time>
      </trkpt>
      <trkpt lat="43.46166" lon="6.3728">
        <ele>215</ele>
        <time>2019-02-15T13:07:38Z</time>
      </trkpt>
      <trkpt lat="43.4616" lon="6.37271">
        <ele>215.8</ele>
        <time>2019-02-15T13:07:46Z</time>
      </trkpt>
      <trkpt lat="43.46152" lon="6.37264">
        <ele>215.3</ele>
        <time>2019-02-15T13:07:54Z</time>
      </trkpt>
      <trkpt lat="43.46144" lon="6.37257">
        <ele>214.2</ele>
        <time>2019-02-15T13:08:04Z</time>
      </trkpt>
      <trkpt lat="43.46135" lon="6.3725">
        <ele>213.2</ele>
        <time>2019-02-15T13:08:13Z</time>
      </trkpt>
      <trkpt lat="43.46128" lon="6.37242">
        <ele>212.3</ele>
        <time>2019-02-15T13:08:21Z</time>
      </trkpt>
      <trkpt lat="43.46121" lon="6.37233">
        <ele>211.5</ele>
        <time>2019-02-15T13:08:28Z</time>
      </trkpt>
      <trkpt lat="43.46113" lon="6.37226">
        <ele>210.5</ele>
        <time>2019-02-15T13:08:36Z</time>
      </trkpt>
      <trkpt lat="43.46106" lon="6.37217">
        <ele>209.7</ele>
        <time>2019-02-15T13:08:45Z</time>
      </trkpt>
      <trkpt lat="43.46097" lon="6.37209">
        <ele>208.2</ele>
        <time>2019-02-15T13:08:55Z</time>
      </trkpt>
      <trkpt lat="43.46088" lon="6.37207">
        <ele>207.3</ele>
        <time>2019-02-15T13:09:04Z</time>
      </trkpt>
      <trkpt lat="43.46079" lon="6.37202">
        <ele>205.8</ele>
        <time>2019-02-15T13:09:15Z</time>
      </trkpt>
      <trkpt lat="43.46072" lon="6.37193">
        <ele>204.3</ele>
        <time>2019-02-15T13:09:25Z</time>
      </trkpt>
      <trkpt lat="43.46066" lon="6.37184">
        <ele>202.6</ele>
        <time>2019-02-15T13:09:36Z</time>
      </trkpt>
      <trkpt lat="43.46058" lon="6.37174">
        <ele>200.8</ele>
        <time>2019-02-15T13:09:46Z</time>
      </trkpt>
      <trkpt lat="43.4605" lon="6.37167">
        <ele>198.6</ele>
        <time>2019-02-15T13:09:58Z</time>
      </trkpt>
      <trkpt lat="43.46046" lon="6.37156">
        <ele>196.7</ele>
        <time>2019-02-15T13:10:08Z</time>
      </trkpt>
      <trkpt lat="43.4604" lon="6.37146">
        <ele>195.1</ele>
        <time>2019-02-15T13:10:18Z</time>
      </trkpt>
      <trkpt lat="43.46034" lon="6.37136">
        <ele>193.7</ele>
        <time>2019-02-15T13:10:28Z</time>
      </trkpt>
      <trkpt lat="43.46027" lon="6.37127">
        <ele>192.6</ele>
        <time>2019-02-15T13:10:37Z</time>
      </trkpt>
      <trkpt lat="43.46019" lon="6.37118">
        <ele>191</ele>
        <time>2019-02-15T13:10:47Z</time>
      </trkpt>
      <trkpt lat="43.46012" lon="6.37108">
        <ele>189.8</ele>
        <time>2019-02-15T13:10:56Z</time>
      </trkpt>
      <trkpt lat="43.46006" lon="6.371">
        <ele>188.2</ele>
        <time>2019-02-15T13:11:06Z</time>
      </trkpt>
      <trkpt lat="43.45999" lon="6.3709">
        <ele>187.2</ele>
        <time>2019-02-15T13:11:15Z</time>
      </trkpt>
      <trkpt lat="43.45992" lon="6.37081">
        <ele>185.8</ele>
        <time>2019-02-15T13:11:24Z</time>
      </trkpt>
      <trkpt lat="43.45986" lon="6.37072">
        <ele>184.2</ele>
        <time>2019-02-15T13:11:34Z</time>
      </trkpt>
      <trkpt lat="43.45978" lon="6.37063">
        <ele>182.8</ele>
        <time>2019-02-15T13:11:42Z</time>
      </trkpt>
      <trkpt lat="43.45969" lon="6.37059">
        <ele>181.6</ele>
        <time>2019-02-15T13:11:51Z</time>
      </trkpt>
      <trkpt lat="43.45961" lon="6.37062">
        <ele>180.3</ele>
        <time>2019-02-15T13:12:01Z</time>
      </trkpt>
      <trkpt lat="43.45953" lon="6.3707">
        <ele>179.1</ele>
        <time>2019-02-15T13:12:12Z</time>
      </trkpt>
      <trkpt lat="43.45945" lon="6.37077">
        <ele>177.6</ele>
        <time>2019-02-15T13:12:21Z</time>
      </trkpt>
      <trkpt lat="43.45938" lon="6.37084">
        <ele>176.1</ele>
        <time>2019-02-15T13:12:28Z</time>
      </trkpt>
      <trkpt lat="43.45929" lon="6.37091">
        <ele>174.6</ele>
        <time>2019-02-15T13:12:37Z</time>
      </trkpt>
      <trkpt lat="43.4592" lon="6.37093">
        <ele>174</ele>
        <time>2019-02-15T13:12:45Z</time>
      </trkpt>
      <trkpt lat="43.45911" lon="6.37094">
        <ele>173.4</ele>
        <time>2019-02-15T13:12:55Z</time>
      </trkpt>
      <trkpt lat="43.45902" lon="6.37096">
        <ele>173.1</ele>
        <time>2019-02-15T13:13:05Z</time>
      </trkpt>
      <trkpt lat="43.45893" lon="6.37097">
        <ele>172.8</ele>
        <time>2019-02-15T13:13:13Z</time>
      </trkpt>
      <trkpt lat="43.45883" lon="6.37096">
        <ele>172.2</ele>
        <time>2019-02-15T13:13:21Z</time>
      </trkpt>
      <trkpt lat="43.45876" lon="6.37103">
        <ele>172.4</ele>
        <time>2019-02-15T13:14:14Z</time>
      </trkpt>
      <trkpt lat="43.45877" lon="6.3709">
        <ele>171.7</ele>
        <time>2019-02-15T13:15:49Z</time>
      </trkpt>
      <trkpt lat="43.45877" lon="6.37077">
        <ele>170.8</ele>
        <time>2019-02-15T13:15:58Z</time>
      </trkpt>
      <trkpt lat="43.45877" lon="6.37064">
        <ele>170.4</ele>
        <time>2019-02-15T13:16:07Z</time>
      </trkpt>
      <trkpt lat="43.45875" lon="6.37051">
        <ele>169.9</ele>
        <time>2019-02-15T13:16:16Z</time>
      </trkpt>
      <trkpt lat="43.45873" lon="6.37039">
        <ele>169.4</ele>
        <time>2019-02-15T13:16:24Z</time>
      </trkpt>
      <trkpt lat="43.45871" lon="6.37026">
        <ele>169.2</ele>
        <time>2019-02-15T13:16:33Z</time>
      </trkpt>
      <trkpt lat="43.45871" lon="6.37013">
        <ele>169.1</ele>
        <time>2019-02-15T13:16:42Z</time>
      </trkpt>
      <trkpt lat="43.45869" lon="6.37001">
        <ele>168.8</ele>
        <time>2019-02-15T13:16:50Z</time>
      </trkpt>
      <trkpt lat="43.45859" lon="6.37">
        <ele>168.9</ele>
        <time>2019-02-15T13:18:26Z</time>
      </trkpt>
      <trkpt lat="43.4585" lon="6.36999">
        <ele>170.4</ele>
        <time>2019-02-15T13:21:40Z</time>
      </trkpt>
      <trkpt lat="43.45841" lon="6.36999">
        <ele>171</ele>
        <time>2019-02-15T13:21:53Z</time>
      </trkpt>
      <trkpt lat="43.45831" lon="6.36998">
        <ele>171.5</ele>
        <time>2019-02-15T13:22:03Z</time>
      </trkpt>
      <trkpt lat="43.45822" lon="6.37">
        <ele>171.7</ele>
        <time>2019-02-15T13:22:12Z</time>
      </trkpt>
      <trkpt lat="43.45813" lon="6.37003">
        <ele>172.3</ele>
        <time>2019-02-15T13:22:21Z</time>
      </trkpt>
      <trkpt lat="43.45803" lon="6.37007">
        <ele>172.9</ele>
        <time>2019-02-15T13:22:30Z</time>
      </trkpt>
      <trkpt lat="43.45794" lon="6.37008">
        <ele>172.4</ele>
        <time>2019-02-15T13:22:38Z</time>
      </trkpt>
      <trkpt lat="43.45784" lon="6.37013">
        <ele>172.9</ele>
        <time>2019-02-15T13:22:48Z</time>
      </trkpt>
      <trkpt lat="43.45776" lon="6.37018">
        <ele>173.2</ele>
        <time>2019-02-15T13:22:57Z</time>
      </trkpt>
      <trkpt lat="43.45766" lon="6.37022">
        <ele>173.2</ele>
        <time>2019-02-15T13:23:07Z</time>
      </trkpt>
      <trkpt lat="43.45757" lon="6.37024">
        <ele>173.3</ele>
        <time>2019-02-15T13:23:16Z</time>
      </trkpt>
      <trkpt lat="43.45748" lon="6.37028">
        <ele>173.5</ele>
        <time>2019-02-15T13:23:25Z</time>
      </trkpt>
      <trkpt lat="43.45738" lon="6.37031">
        <ele>172.3</ele>
        <time>2019-02-15T13:23:34Z</time>
      </trkpt>
      <trkpt lat="43.45729" lon="6.37033">
        <ele>171.1</ele>
        <time>2019-02-15T13:23:44Z</time>
      </trkpt>
      <trkpt lat="43.4572" lon="6.37035">
        <ele>169.7</ele>
        <time>2019-02-15T13:23:53Z</time>
      </trkpt>
      <trkpt lat="43.45711" lon="6.37038">
        <ele>169</ele>
        <time>2019-02-15T13:24:02Z</time>
      </trkpt>
      <trkpt lat="43.45701" lon="6.37038">
        <ele>168.3</ele>
        <time>2019-02-15T13:24:10Z</time>
      </trkpt>
      <trkpt lat="43.45692" lon="6.37039">
        <ele>168.5</ele>
        <time>2019-02-15T13:24:19Z</time>
      </trkpt>
      <trkpt lat="43.45682" lon="6.37038">
        <ele>168.3</ele>
        <time>2019-02-15T13:24:30Z</time>
      </trkpt>
      <trkpt lat="43.45672" lon="6.37038">
        <ele>168.5</ele>
        <time>2019-02-15T13:24:40Z</time>
      </trkpt>
      <trkpt lat="43.45663" lon="6.37038">
        <ele>167.9</ele>
        <time>2019-02-15T13:24:49Z</time>
      </trkpt>
      <trkpt lat="43.45654" lon="6.37034">
        <ele>168.6</ele>
        <time>2019-02-15T13:24:59Z</time>
      </trkpt>
      <trkpt lat="43.45645" lon="6.37031">
        <ele>169.5</ele>
        <time>2019-02-15T13:25:13Z</time>
      </trkpt>
      <trkpt lat="43.45636" lon="6.37028">
        <ele>170</ele>
        <time>2019-02-15T13:25:24Z</time>
      </trkpt>
      <trkpt lat="43.45626" lon="6.37024">
        <ele>171.1</ele>
        <time>2019-02-15T13:25:37Z</time>
      </trkpt>
      <trkpt lat="43.45619" lon="6.37018">
        <ele>172.5</ele>
        <time>2019-02-15T13:25:47Z</time>
      </trkpt>
      <trkpt lat="43.45609" lon="6.37016">
        <ele>173.3</ele>
        <time>2019-02-15T13:25:57Z</time>
      </trkpt>
      <trkpt lat="43.45604" lon="6.37027">
        <ele>174.2</ele>
        <time>2019-02-15T13:26:08Z</time>
      </trkpt>
      <trkpt lat="43.45604" lon="6.3704">
        <ele>175.1</ele>
        <time>2019-02-15T13:26:19Z</time>
      </trkpt>
      <trkpt lat="43.45598" lon="6.37052">
        <ele>176.4</ele>
        <time>2019-02-15T13:26:32Z</time>
      </trkpt>
      <trkpt lat="43.45597" lon="6.37064">
        <ele>177.3</ele>
        <time>2019-02-15T13:26:43Z</time>
      </trkpt>
      <trkpt lat="43.456" lon="6.37076">
        <ele>178.1</ele>
        <time>2019-02-15T13:27:05Z</time>
      </trkpt>
      <trkpt lat="43.45604" lon="6.37088">
        <ele>178.9</ele>
        <time>2019-02-15T13:27:18Z</time>
      </trkpt>
      <trkpt lat="43.45608" lon="6.37099">
        <ele>179.4</ele>
        <time>2019-02-15T13:27:29Z</time>
      </trkpt>
      <trkpt lat="43.4561" lon="6.37112">
        <ele>180.8</ele>
        <time>2019-02-15T13:27:42Z</time>
      </trkpt>
      <trkpt lat="43.45609" lon="6.37125">
        <ele>181.9</ele>
        <time>2019-02-15T13:27:53Z</time>
      </trkpt>
      <trkpt lat="43.4561" lon="6.37137">
        <ele>183.4</ele>
        <time>2019-02-15T13:28:05Z</time>
      </trkpt>
      <trkpt lat="43.4561" lon="6.3715">
        <ele>184.5</ele>
        <time>2019-02-15T13:28:18Z</time>
      </trkpt>
      <trkpt lat="43.45603" lon="6.3716">
        <ele>186.3</ele>
        <time>2019-02-15T13:28:36Z</time>
      </trkpt>
      <trkpt lat="43.45595" lon="6.37168">
        <ele>186.6</ele>
        <time>2019-02-15T13:28:48Z</time>
      </trkpt>
      <trkpt lat="43.45588" lon="6.37176">
        <ele>187.2</ele>
        <time>2019-02-15T13:29:02Z</time>
      </trkpt>
      <trkpt lat="43.45579" lon="6.37182">
        <ele>187.5</ele>
        <time>2019-02-15T13:29:14Z</time>
      </trkpt>
      <trkpt lat="43.4557" lon="6.37185">
        <ele>187.4</ele>
        <time>2019-02-15T13:29:24Z</time>
      </trkpt>
      <trkpt lat="43.45562" lon="6.37192">
        <ele>187.5</ele>
        <time>2019-02-15T13:29:32Z</time>
      </trkpt>
      <trkpt lat="43.45554" lon="6.37199">
        <ele>187.7</ele>
        <time>2019-02-15T13:29:43Z</time>
      </trkpt>
      <trkpt lat="43.45547" lon="6.37209">
        <ele>187.6</ele>
        <time>2019-02-15T13:29:54Z</time>
      </trkpt>
      <trkpt lat="43.45542" lon="6.3722">
        <ele>187.9</ele>
        <time>2019-02-15T13:30:04Z</time>
      </trkpt>
      <trkpt lat="43.45538" lon="6.37232">
        <ele>188.2</ele>
        <time>2019-02-15T13:30:14Z</time>
      </trkpt>
      <trkpt lat="43.45534" lon="6.37243">
        <ele>188.4</ele>
        <time>2019-02-15T13:30:23Z</time>
      </trkpt>
      <trkpt lat="43.45527" lon="6.37251">
        <ele>188.8</ele>
        <time>2019-02-15T13:30:34Z</time>
      </trkpt>
      <trkpt lat="43.45518" lon="6.37254">
        <ele>188.4</ele>
        <time>2019-02-15T13:30:44Z</time>
      </trkpt>
      <trkpt lat="43.45508" lon="6.37258">
        <ele>188</ele>
        <time>2019-02-15T13:30:56Z</time>
      </trkpt>
      <trkpt lat="43.45499" lon="6.37255">
        <ele>188.5</ele>
        <time>2019-02-15T13:31:06Z</time>
      </trkpt>
      <trkpt lat="43.45489" lon="6.37253">
        <ele>189.3</ele>
        <time>2019-02-15T13:31:16Z</time>
      </trkpt>
      <trkpt lat="43.4548" lon="6.37248">
        <ele>190.4</ele>
        <time>2019-02-15T13:31:26Z</time>
      </trkpt>
      <trkpt lat="43.45473" lon="6.37256">
        <ele>191.9</ele>
        <time>2019-02-15T13:33:25Z</time>
      </trkpt>
      <trkpt lat="43.45464" lon="6.37252">
        <ele>193</ele>
        <time>2019-02-15T13:36:50Z</time>
      </trkpt>
      <trkpt lat="43.45456" lon="6.3726">
        <ele>194.7</ele>
        <time>2019-02-15T13:37:21Z</time>
      </trkpt>
      <trkpt lat="43.45452" lon="6.37271">
        <ele>195.1</ele>
        <time>2019-02-15T13:37:33Z</time>
      </trkpt>
      <trkpt lat="43.45447" lon="6.37282">
        <ele>195.7</ele>
        <time>2019-02-15T13:37:44Z</time>
      </trkpt>
      <trkpt lat="43.45438" lon="6.37289">
        <ele>195.9</ele>
        <time>2019-02-15T13:37:54Z</time>
      </trkpt>
      <trkpt lat="43.45433" lon="6.37299">
        <ele>196.1</ele>
        <time>2019-02-15T13:38:03Z</time>
      </trkpt>
      <trkpt lat="43.45431" lon="6.37312">
        <ele>196.1</ele>
        <time>2019-02-15T13:38:12Z</time>
      </trkpt>
      <trkpt lat="43.45428" lon="6.37325">
        <ele>196.7</ele>
        <time>2019-02-15T13:38:23Z</time>
      </trkpt>
      <trkpt lat="43.45423" lon="6.37337">
        <ele>196.7</ele>
        <time>2019-02-15T13:38:33Z</time>
      </trkpt>
      <trkpt lat="43.45419" lon="6.37348">
        <ele>196.4</ele>
        <time>2019-02-15T13:38:42Z</time>
      </trkpt>
      <trkpt lat="43.45415" lon="6.3736">
        <ele>196.5</ele>
        <time>2019-02-15T13:38:51Z</time>
      </trkpt>
      <trkpt lat="43.4541" lon="6.37371">
        <ele>196.6</ele>
        <time>2019-02-15T13:39:00Z</time>
      </trkpt>
      <trkpt lat="43.45403" lon="6.37379">
        <ele>197.4</ele>
        <time>2019-02-15T13:39:10Z</time>
      </trkpt>
      <trkpt lat="43.45395" lon="6.37385">
        <ele>198.4</ele>
        <time>2019-02-15T13:39:20Z</time>
      </trkpt>
      <trkpt lat="43.45385" lon="6.37388">
        <ele>199.7</ele>
        <time>2019-02-15T13:39:31Z</time>
      </trkpt>
      <trkpt lat="43.45376" lon="6.37387">
        <ele>199.5</ele>
        <time>2019-02-15T13:39:39Z</time>
      </trkpt>
      <trkpt lat="43.45367" lon="6.37387">
        <ele>199.8</ele>
        <time>2019-02-15T13:39:48Z</time>
      </trkpt>
      <trkpt lat="43.45358" lon="6.37389">
        <ele>199.5</ele>
        <time>2019-02-15T13:39:56Z</time>
      </trkpt>
      <trkpt lat="43.45348" lon="6.37393">
        <ele>199.3</ele>
        <time>2019-02-15T13:40:05Z</time>
      </trkpt>
      <trkpt lat="43.45342" lon="6.37403">
        <ele>199.4</ele>
        <time>2019-02-15T13:40:14Z</time>
      </trkpt>
      <trkpt lat="43.45335" lon="6.37413">
        <ele>200.2</ele>
        <time>2019-02-15T13:40:23Z</time>
      </trkpt>
      <trkpt lat="43.45327" lon="6.3742">
        <ele>200.4</ele>
        <time>2019-02-15T13:40:32Z</time>
      </trkpt>
      <trkpt lat="43.45319" lon="6.37428">
        <ele>200.9</ele>
        <time>2019-02-15T13:40:41Z</time>
      </trkpt>
      <trkpt lat="43.45312" lon="6.37437">
        <ele>201.4</ele>
        <time>2019-02-15T13:40:52Z</time>
      </trkpt>
      <trkpt lat="43.45306" lon="6.37447">
        <ele>202.3</ele>
        <time>2019-02-15T13:41:02Z</time>
      </trkpt>
      <trkpt lat="43.45301" lon="6.37458">
        <ele>203.3</ele>
        <time>2019-02-15T13:41:12Z</time>
      </trkpt>
      <trkpt lat="43.45296" lon="6.37469">
        <ele>204.2</ele>
        <time>2019-02-15T13:41:22Z</time>
      </trkpt>
      <trkpt lat="43.45289" lon="6.37478">
        <ele>204.7</ele>
        <time>2019-02-15T13:41:32Z</time>
      </trkpt>
      <trkpt lat="43.45283" lon="6.37488">
        <ele>204.8</ele>
        <time>2019-02-15T13:41:46Z</time>
      </trkpt>
      <trkpt lat="43.45275" lon="6.37481">
        <ele>203.8</ele>
        <time>2019-02-15T13:42:00Z</time>
      </trkpt>
      <trkpt lat="43.45266" lon="6.37479">
        <ele>202.9</ele>
        <time>2019-02-15T13:42:10Z</time>
      </trkpt>
      <trkpt lat="43.45257" lon="6.37477">
        <ele>202</ele>
        <time>2019-02-15T13:42:20Z</time>
      </trkpt>
      <trkpt lat="43.45247" lon="6.37474">
        <ele>200.5</ele>
        <time>2019-02-15T13:42:29Z</time>
      </trkpt>
      <trkpt lat="43.45238" lon="6.37471">
        <ele>199.2</ele>
        <time>2019-02-15T13:42:38Z</time>
      </trkpt>
      <trkpt lat="43.45228" lon="6.3747">
        <ele>198.3</ele>
        <time>2019-02-15T13:42:46Z</time>
      </trkpt>
      <trkpt lat="43.45219" lon="6.37469">
        <ele>198.1</ele>
        <time>2019-02-15T13:42:54Z</time>
      </trkpt>
      <trkpt lat="43.45209" lon="6.37471">
        <ele>198.1</ele>
        <time>2019-02-15T13:43:02Z</time>
      </trkpt>
      <trkpt lat="43.452" lon="6.37471">
        <ele>197.9</ele>
        <time>2019-02-15T13:43:10Z</time>
      </trkpt>
      <trkpt lat="43.4519" lon="6.37472">
        <ele>197.8</ele>
        <time>2019-02-15T13:43:19Z</time>
      </trkpt>
      <trkpt lat="43.45181" lon="6.37469">
        <ele>198.9</ele>
        <time>2019-02-15T13:43:28Z</time>
      </trkpt>
      <trkpt lat="43.45172" lon="6.37465">
        <ele>199.8</ele>
        <time>2019-02-15T13:43:37Z</time>
      </trkpt>
      <trkpt lat="43.45164" lon="6.37458">
        <ele>201.3</ele>
        <time>2019-02-15T13:43:47Z</time>
      </trkpt>
      <trkpt lat="43.45157" lon="6.37449">
        <ele>202.3</ele>
        <time>2019-02-15T13:43:56Z</time>
      </trkpt>
      <trkpt lat="43.45149" lon="6.37442">
        <ele>203.5</ele>
        <time>2019-02-15T13:44:06Z</time>
      </trkpt>
      <trkpt lat="43.4514" lon="6.37437">
        <ele>204.6</ele>
        <time>2019-02-15T13:44:16Z</time>
      </trkpt>
      <trkpt lat="43.4513" lon="6.37434">
        <ele>205.5</ele>
        <time>2019-02-15T13:44:27Z</time>
      </trkpt>
      <trkpt lat="43.45121" lon="6.3743">
        <ele>204.9</ele>
        <time>2019-02-15T13:44:36Z</time>
      </trkpt>
      <trkpt lat="43.45112" lon="6.37429">
        <ele>205.5</ele>
        <time>2019-02-15T13:44:45Z</time>
      </trkpt>
      <trkpt lat="43.45102" lon="6.3743">
        <ele>205.4</ele>
        <time>2019-02-15T13:44:54Z</time>
      </trkpt>
      <trkpt lat="43.45093" lon="6.37432">
        <ele>205.2</ele>
        <time>2019-02-15T13:45:03Z</time>
      </trkpt>
      <trkpt lat="43.45084" lon="6.37438">
        <ele>205.2</ele>
        <time>2019-02-15T13:45:11Z</time>
      </trkpt>
      <trkpt lat="43.45076" lon="6.37445">
        <ele>205.1</ele>
        <time>2019-02-15T13:45:19Z</time>
      </trkpt>
      <trkpt lat="43.45069" lon="6.37452">
        <ele>204.4</ele>
        <time>2019-02-15T13:45:27Z</time>
      </trkpt>
      <trkpt lat="43.45062" lon="6.37461">
        <ele>203.9</ele>
        <time>2019-02-15T13:45:36Z</time>
      </trkpt>
      <trkpt lat="43.45054" lon="6.37469">
        <ele>203.8</ele>
        <time>2019-02-15T13:45:44Z</time>
      </trkpt>
      <trkpt lat="43.45046" lon="6.37478">
        <ele>203</ele>
        <time>2019-02-15T13:45:52Z</time>
      </trkpt>
      <trkpt lat="43.45037" lon="6.37482">
        <ele>201.6</ele>
        <time>2019-02-15T13:46:00Z</time>
      </trkpt>
      <trkpt lat="43.45029" lon="6.37487">
        <ele>201.3</ele>
        <time>2019-02-15T13:46:08Z</time>
      </trkpt>
      <trkpt lat="43.45021" lon="6.37491">
        <ele>200.7</ele>
        <time>2019-02-15T13:46:15Z</time>
      </trkpt>
      <trkpt lat="43.45011" lon="6.37494">
        <ele>199.8</ele>
        <time>2019-02-15T13:46:24Z</time>
      </trkpt>
      <trkpt lat="43.45002" lon="6.37495">
        <ele>199.1</ele>
        <time>2019-02-15T13:46:32Z</time>
      </trkpt>
      <trkpt lat="43.44992" lon="6.37498">
        <ele>198.8</ele>
        <time>2019-02-15T13:46:41Z</time>
      </trkpt>
      <trkpt lat="43.44983" lon="6.375">
        <ele>198.7</ele>
        <time>2019-02-15T13:46:49Z</time>
      </trkpt>
      <trkpt lat="43.44973" lon="6.37503">
        <ele>198</ele>
        <time>2019-02-15T13:46:58Z</time>
      </trkpt>
      <trkpt lat="43.44964" lon="6.37505">
        <ele>198</ele>
        <time>2019-02-15T13:47:07Z</time>
      </trkpt>
      <trkpt lat="43.44956" lon="6.37511">
        <ele>197.9</ele>
        <time>2019-02-15T13:47:28Z</time>
      </trkpt>
      <trkpt lat="43.44947" lon="6.37512">
        <ele>197.5</ele>
        <time>2019-02-15T13:47:56Z</time>
      </trkpt>
      <trkpt lat="43.44937" lon="6.37513">
        <ele>197</ele>
        <time>2019-02-15T13:48:05Z</time>
      </trkpt>
      <trkpt lat="43.44927" lon="6.37516">
        <ele>196</ele>
        <time>2019-02-15T13:48:14Z</time>
      </trkpt>
      <trkpt lat="43.44918" lon="6.37519">
        <ele>195.2</ele>
        <time>2019-02-15T13:48:22Z</time>
      </trkpt>
      <trkpt lat="43.44927" lon="6.37517">
        <ele>195.4</ele>
        <time>2019-02-15T13:48:53Z</time>
      </trkpt>
      <trkpt lat="43.44936" lon="6.37515">
        <ele>196.4</ele>
        <time>2019-02-15T13:49:03Z</time>
      </trkpt>
      <trkpt lat="43.44945" lon="6.37512">
        <ele>197.2</ele>
        <time>2019-02-15T13:49:14Z</time>
      </trkpt>
      <trkpt lat="43.44955" lon="6.37509">
        <ele>197.5</ele>
        <time>2019-02-15T13:49:23Z</time>
      </trkpt>
      <trkpt lat="43.44963" lon="6.37507">
        <ele>197.5</ele>
        <time>2019-02-15T13:49:31Z</time>
      </trkpt>
      <trkpt lat="43.44973" lon="6.37507">
        <ele>198.3</ele>
        <time>2019-02-15T13:49:40Z</time>
      </trkpt>
      <trkpt lat="43.44981" lon="6.37503">
        <ele>198.5</ele>
        <time>2019-02-15T13:49:49Z</time>
      </trkpt>
      <trkpt lat="43.4499" lon="6.37501">
        <ele>198.8</ele>
        <time>2019-02-15T13:49:57Z</time>
      </trkpt>
      <trkpt lat="43.44981" lon="6.37501">
        <ele>199.1</ele>
        <time>2019-02-15T13:51:04Z</time>
      </trkpt>
      <trkpt lat="43.44971" lon="6.37503">
        <ele>198.9</ele>
        <time>2019-02-15T13:51:18Z</time>
      </trkpt>
      <trkpt lat="43.44962" lon="6.37506">
        <ele>198.4</ele>
        <time>2019-02-15T13:51:26Z</time>
      </trkpt>
      <trkpt lat="43.44953" lon="6.37509">
        <ele>198.3</ele>
        <time>2019-02-15T13:51:36Z</time>
      </trkpt>
      <trkpt lat="43.44944" lon="6.37511">
        <ele>198</ele>
        <time>2019-02-15T13:51:46Z</time>
      </trkpt>
      <trkpt lat="43.44934" lon="6.37513">
        <ele>197.3</ele>
        <time>2019-02-15T13:51:54Z</time>
      </trkpt>
      <trkpt lat="43.44924" lon="6.37515">
        <ele>196.4</ele>
        <time>2019-02-15T13:52:04Z</time>
      </trkpt>
      <trkpt lat="43.44916" lon="6.37518">
        <ele>195.7</ele>
        <time>2019-02-15T13:52:12Z</time>
      </trkpt>
      <trkpt lat="43.44906" lon="6.37522">
        <ele>194.5</ele>
        <time>2019-02-15T13:52:22Z</time>
      </trkpt>
      <trkpt lat="43.44898" lon="6.37526">
        <ele>193.8</ele>
        <time>2019-02-15T13:52:32Z</time>
      </trkpt>
      <trkpt lat="43.44888" lon="6.3753">
        <ele>192.7</ele>
        <time>2019-02-15T13:52:42Z</time>
      </trkpt>
      <trkpt lat="43.44878" lon="6.37532">
        <ele>191.5</ele>
        <time>2019-02-15T13:52:52Z</time>
      </trkpt>
      <trkpt lat="43.44869" lon="6.37532">
        <ele>189.7</ele>
        <time>2019-02-15T13:53:05Z</time>
      </trkpt>
      <trkpt lat="43.44863" lon="6.37542">
        <ele>189.7</ele>
        <time>2019-02-15T13:53:37Z</time>
      </trkpt>
      <trkpt lat="43.44863" lon="6.37555">
        <ele>190</ele>
        <time>2019-02-15T13:57:20Z</time>
      </trkpt>
      <trkpt lat="43.44869" lon="6.37565">
        <ele>189.9</ele>
        <time>2019-02-15T13:58:07Z</time>
      </trkpt>
      <trkpt lat="43.44871" lon="6.37578">
        <ele>190.6</ele>
        <time>2019-02-15T13:58:17Z</time>
      </trkpt>
      <trkpt lat="43.44871" lon="6.37591">
        <ele>191.4</ele>
        <time>2019-02-15T13:58:26Z</time>
      </trkpt>
      <trkpt lat="43.44866" lon="6.37603">
        <ele>191.7</ele>
        <time>2019-02-15T13:58:35Z</time>
      </trkpt>
      <trkpt lat="43.44862" lon="6.37614">
        <ele>191.6</ele>
        <time>2019-02-15T13:58:43Z</time>
      </trkpt>
      <trkpt lat="43.44859" lon="6.37626">
        <ele>191.7</ele>
        <time>2019-02-15T13:58:51Z</time>
      </trkpt>
      <trkpt lat="43.4486" lon="6.37639">
        <ele>191.2</ele>
        <time>2019-02-15T13:59:00Z</time>
      </trkpt>
      <trkpt lat="43.44866" lon="6.37648">
        <ele>192</ele>
        <time>2019-02-15T13:59:08Z</time>
      </trkpt>
      <trkpt lat="43.44872" lon="6.37658">
        <ele>192.9</ele>
        <time>2019-02-15T13:59:17Z</time>
      </trkpt>
      <trkpt lat="43.44878" lon="6.37668">
        <ele>193.2</ele>
        <time>2019-02-15T13:59:26Z</time>
      </trkpt>
      <trkpt lat="43.44885" lon="6.37675">
        <ele>193.9</ele>
        <time>2019-02-15T13:59:34Z</time>
      </trkpt>
      <trkpt lat="43.44892" lon="6.37684">
        <ele>194.7</ele>
        <time>2019-02-15T13:59:44Z</time>
      </trkpt>
      <trkpt lat="43.44892" lon="6.37697">
        <ele>195.7</ele>
        <time>2019-02-15T13:59:56Z</time>
      </trkpt>
      <trkpt lat="43.44887" lon="6.37707">
        <ele>195.7</ele>
        <time>2019-02-15T14:00:13Z</time>
      </trkpt>
      <trkpt lat="43.44883" lon="6.37719">
        <ele>196.1</ele>
        <time>2019-02-15T14:00:24Z</time>
      </trkpt>
      <trkpt lat="43.44879" lon="6.3773">
        <ele>196.7</ele>
        <time>2019-02-15T14:00:34Z</time>
      </trkpt>
      <trkpt lat="43.44874" lon="6.37742">
        <ele>196.8</ele>
        <time>2019-02-15T14:00:43Z</time>
      </trkpt>
      <trkpt lat="43.44871" lon="6.37754">
        <ele>196.9</ele>
        <time>2019-02-15T14:00:55Z</time>
      </trkpt>
      <trkpt lat="43.44879" lon="6.37759">
        <ele>197.3</ele>
        <time>2019-02-15T14:03:51Z</time>
      </trkpt>
      <trkpt lat="43.44888" lon="6.37763">
        <ele>197.6</ele>
        <time>2019-02-15T14:04:53Z</time>
      </trkpt>
      <trkpt lat="43.44895" lon="6.37773">
        <ele>198.5</ele>
        <time>2019-02-15T14:05:03Z</time>
      </trkpt>
      <trkpt lat="43.44902" lon="6.37781">
        <ele>199.8</ele>
        <time>2019-02-15T14:05:13Z</time>
      </trkpt>
      <trkpt lat="43.44912" lon="6.37785">
        <ele>200.8</ele>
        <time>2019-02-15T14:05:22Z</time>
      </trkpt>
      <trkpt lat="43.4492" lon="6.37782">
        <ele>202</ele>
        <time>2019-02-15T14:05:30Z</time>
      </trkpt>
      <trkpt lat="43.44929" lon="6.37775">
        <ele>202.4</ele>
        <time>2019-02-15T14:05:35Z</time>
      </trkpt>
      <trkpt lat="43.44938" lon="6.37769">
        <ele>204</ele>
        <time>2019-02-15T14:05:47Z</time>
      </trkpt>
      <trkpt lat="43.44944" lon="6.3776">
        <ele>204.1</ele>
        <time>2019-02-15T14:05:56Z</time>
      </trkpt>
      <trkpt lat="43.44953" lon="6.37753">
        <ele>204.8</ele>
        <time>2019-02-15T14:06:05Z</time>
      </trkpt>
      <trkpt lat="43.44959" lon="6.37745">
        <ele>205.4</ele>
        <time>2019-02-15T14:07:00Z</time>
      </trkpt>
      <trkpt lat="43.44968" lon="6.3774">
        <ele>206.1</ele>
        <time>2019-02-15T14:07:08Z</time>
      </trkpt>
      <trkpt lat="43.44977" lon="6.37737">
        <ele>206.7</ele>
        <time>2019-02-15T14:07:15Z</time>
      </trkpt>
      <trkpt lat="43.44986" lon="6.37732">
        <ele>207.6</ele>
        <time>2019-02-15T14:07:27Z</time>
      </trkpt>
      <trkpt lat="43.44994" lon="6.37726">
        <ele>208</ele>
        <time>2019-02-15T14:07:36Z</time>
      </trkpt>
      <trkpt lat="43.45002" lon="6.37721">
        <ele>208.5</ele>
        <time>2019-02-15T14:07:44Z</time>
      </trkpt>
      <trkpt lat="43.45011" lon="6.37716">
        <ele>209.7</ele>
        <time>2019-02-15T14:07:52Z</time>
      </trkpt>
      <trkpt lat="43.4502" lon="6.37711">
        <ele>210</ele>
        <time>2019-02-15T14:08:00Z</time>
      </trkpt>
      <trkpt lat="43.45028" lon="6.37707">
        <ele>210.2</ele>
        <time>2019-02-15T14:08:09Z</time>
      </trkpt>
      <trkpt lat="43.45038" lon="6.37701">
        <ele>211.1</ele>
        <time>2019-02-15T14:08:17Z</time>
      </trkpt>
      <trkpt lat="43.45046" lon="6.37694">
        <ele>212.1</ele>
        <time>2019-02-15T14:08:24Z</time>
      </trkpt>
      <trkpt lat="43.45056" lon="6.3769">
        <ele>213</ele>
        <time>2019-02-15T14:08:31Z</time>
      </trkpt>
      <trkpt lat="43.45066" lon="6.37685">
        <ele>213.6</ele>
        <time>2019-02-15T14:08:37Z</time>
      </trkpt>
      <trkpt lat="43.45075" lon="6.37681">
        <ele>214.4</ele>
        <time>2019-02-15T14:08:44Z</time>
      </trkpt>
      <trkpt lat="43.45085" lon="6.37677">
        <ele>214.9</ele>
        <time>2019-02-15T14:08:50Z</time>
      </trkpt>
      <trkpt lat="43.45095" lon="6.37673">
        <ele>214.9</ele>
        <time>2019-02-15T14:08:56Z</time>
      </trkpt>
      <trkpt lat="43.45104" lon="6.3767">
        <ele>215.8</ele>
        <time>2019-02-15T14:09:02Z</time>
      </trkpt>
      <trkpt lat="43.45114" lon="6.37666">
        <ele>216.4</ele>
        <time>2019-02-15T14:09:08Z</time>
      </trkpt>
      <trkpt lat="43.45123" lon="6.37662">
        <ele>216.7</ele>
        <time>2019-02-15T14:09:15Z</time>
      </trkpt>
      <trkpt lat="43.45133" lon="6.37658">
        <ele>216.6</ele>
        <time>2019-02-15T14:09:22Z</time>
      </trkpt>
      <trkpt lat="43.45143" lon="6.37654">
        <ele>216.9</ele>
        <time>2019-02-15T14:09:29Z</time>
      </trkpt>
      <trkpt lat="43.45152" lon="6.37648">
        <ele>216.6</ele>
        <time>2019-02-15T14:09:36Z</time>
      </trkpt>
      <trkpt lat="43.4516" lon="6.37654">
        <ele>216.5</ele>
        <time>2019-02-15T14:09:45Z</time>
      </trkpt>
      <trkpt lat="43.45164" lon="6.37666">
        <ele>217.4</ele>
        <time>2019-02-15T14:09:52Z</time>
      </trkpt>
      <trkpt lat="43.45168" lon="6.37679">
        <ele>219.1</ele>
        <time>2019-02-15T14:10:01Z</time>
      </trkpt>
      <trkpt lat="43.45172" lon="6.3769">
        <ele>220.4</ele>
        <time>2019-02-15T14:10:10Z</time>
      </trkpt>
      <trkpt lat="43.45176" lon="6.37702">
        <ele>221.2</ele>
        <time>2019-02-15T14:10:19Z</time>
      </trkpt>
      <trkpt lat="43.4518" lon="6.37714">
        <ele>222.9</ele>
        <time>2019-02-15T14:10:28Z</time>
      </trkpt>
      <trkpt lat="43.45183" lon="6.37726">
        <ele>224.5</ele>
        <time>2019-02-15T14:10:37Z</time>
      </trkpt>
      <trkpt lat="43.45186" lon="6.37738">
        <ele>225.8</ele>
        <time>2019-02-15T14:10:47Z</time>
      </trkpt>
      <trkpt lat="43.4519" lon="6.3775">
        <ele>228</ele>
        <time>2019-02-15T14:10:57Z</time>
      </trkpt>
      <trkpt lat="43.45195" lon="6.37762">
        <ele>229</ele>
        <time>2019-02-15T14:11:06Z</time>
      </trkpt>
      <trkpt lat="43.45198" lon="6.37774">
        <ele>230.2</ele>
        <time>2019-02-15T14:11:15Z</time>
      </trkpt>
      <trkpt lat="43.45202" lon="6.37786">
        <ele>231.7</ele>
        <time>2019-02-15T14:11:24Z</time>
      </trkpt>
      <trkpt lat="43.45204" lon="6.37798">
        <ele>233.1</ele>
        <time>2019-02-15T14:11:33Z</time>
      </trkpt>
      <trkpt lat="43.45209" lon="6.37809">
        <ele>234.4</ele>
        <time>2019-02-15T14:15:25Z</time>
      </trkpt>
      <trkpt lat="43.45213" lon="6.37821">
        <ele>234.7</ele>
        <time>2019-02-15T14:15:34Z</time>
      </trkpt>
      <trkpt lat="43.45217" lon="6.37833">
        <ele>235.2</ele>
        <time>2019-02-15T14:15:44Z</time>
      </trkpt>
      <trkpt lat="43.45221" lon="6.37846">
        <ele>235.7</ele>
        <time>2019-02-15T14:15:53Z</time>
      </trkpt>
      <trkpt lat="43.45224" lon="6.37858">
        <ele>235.8</ele>
        <time>2019-02-15T14:16:01Z</time>
      </trkpt>
      <trkpt lat="43.45228" lon="6.3787">
        <ele>235.9</ele>
        <time>2019-02-15T14:16:10Z</time>
      </trkpt>
      <trkpt lat="43.45232" lon="6.37882">
        <ele>236</ele>
        <time>2019-02-15T14:16:18Z</time>
      </trkpt>
      <trkpt lat="43.45236" lon="6.37894">
        <ele>235.9</ele>
        <time>2019-02-15T14:16:25Z</time>
      </trkpt>
      <trkpt lat="43.4524" lon="6.37906">
        <ele>235.6</ele>
        <time>2019-02-15T14:16:33Z</time>
      </trkpt>
      <trkpt lat="43.45244" lon="6.3792">
        <ele>235</ele>
        <time>2019-02-15T14:16:41Z</time>
      </trkpt>
      <trkpt lat="43.45248" lon="6.37931">
        <ele>234.2</ele>
        <time>2019-02-15T14:16:49Z</time>
      </trkpt>
      <trkpt lat="43.45251" lon="6.37944">
        <ele>233.4</ele>
        <time>2019-02-15T14:16:57Z</time>
      </trkpt>
      <trkpt lat="43.45255" lon="6.37956">
        <ele>232.5</ele>
        <time>2019-02-15T14:17:05Z</time>
      </trkpt>
      <trkpt lat="43.45252" lon="6.37968">
        <ele>231.6</ele>
        <time>2019-02-15T14:17:17Z</time>
      </trkpt>
      <trkpt lat="43.45243" lon="6.37974">
        <ele>231</ele>
        <time>2019-02-15T14:17:25Z</time>
      </trkpt>
      <trkpt lat="43.45235" lon="6.37979">
        <ele>230.5</ele>
        <time>2019-02-15T14:17:33Z</time>
      </trkpt>
      <trkpt lat="43.45226" lon="6.37984">
        <ele>231.1</ele>
        <time>2019-02-15T14:17:41Z</time>
      </trkpt>
      <trkpt lat="43.45218" lon="6.3799">
        <ele>231</ele>
        <time>2019-02-15T14:17:49Z</time>
      </trkpt>
      <trkpt lat="43.45209" lon="6.37995">
        <ele>231.3</ele>
        <time>2019-02-15T14:17:57Z</time>
      </trkpt>
      <trkpt lat="43.45201" lon="6.37999">
        <ele>231.4</ele>
        <time>2019-02-15T14:18:05Z</time>
      </trkpt>
      <trkpt lat="43.45192" lon="6.38004">
        <ele>231.6</ele>
        <time>2019-02-15T14:18:13Z</time>
      </trkpt>
      <trkpt lat="43.45184" lon="6.38009">
        <ele>231.3</ele>
        <time>2019-02-15T14:18:21Z</time>
      </trkpt>
      <trkpt lat="43.45175" lon="6.38014">
        <ele>231.2</ele>
        <time>2019-02-15T14:18:29Z</time>
      </trkpt>
      <trkpt lat="43.45166" lon="6.38019">
        <ele>230.6</ele>
        <time>2019-02-15T14:18:37Z</time>
      </trkpt>
      <trkpt lat="43.45157" lon="6.38023">
        <ele>230.5</ele>
        <time>2019-02-15T14:18:45Z</time>
      </trkpt>
      <trkpt lat="43.45148" lon="6.38029">
        <ele>229.8</ele>
        <time>2019-02-15T14:18:53Z</time>
      </trkpt>
      <trkpt lat="43.45139" lon="6.38034">
        <ele>229.1</ele>
        <time>2019-02-15T14:19:01Z</time>
      </trkpt>
      <trkpt lat="43.45129" lon="6.38039">
        <ele>229</ele>
        <time>2019-02-15T14:19:09Z</time>
      </trkpt>
      <trkpt lat="43.45121" lon="6.38045">
        <ele>228.7</ele>
        <time>2019-02-15T14:19:17Z</time>
      </trkpt>
      <trkpt lat="43.45112" lon="6.38049">
        <ele>227.7</ele>
        <time>2019-02-15T14:19:24Z</time>
      </trkpt>
      <trkpt lat="43.45104" lon="6.38054">
        <ele>228.6</ele>
        <time>2019-02-15T14:19:31Z</time>
      </trkpt>
      <trkpt lat="43.45095" lon="6.38059">
        <ele>228.5</ele>
        <time>2019-02-15T14:19:39Z</time>
      </trkpt>
      <trkpt lat="43.45085" lon="6.38064">
        <ele>228.3</ele>
        <time>2019-02-15T14:19:47Z</time>
      </trkpt>
      <trkpt lat="43.45076" lon="6.38068">
        <ele>227.7</ele>
        <time>2019-02-15T14:19:54Z</time>
      </trkpt>
      <trkpt lat="43.45067" lon="6.38074">
        <ele>227.3</ele>
        <time>2019-02-15T14:20:02Z</time>
      </trkpt>
      <trkpt lat="43.45058" lon="6.38079">
        <ele>226.7</ele>
        <time>2019-02-15T14:20:10Z</time>
      </trkpt>
      <trkpt lat="43.4505" lon="6.38087">
        <ele>226.8</ele>
        <time>2019-02-15T14:20:17Z</time>
      </trkpt>
      <trkpt lat="43.45059" lon="6.38082">
        <ele>226.6</ele>
        <time>2019-02-15T14:22:45Z</time>
      </trkpt>
      <trkpt lat="43.45068" lon="6.38078">
        <ele>226.5</ele>
        <time>2019-02-15T14:22:54Z</time>
      </trkpt>
      <trkpt lat="43.45077" lon="6.38073">
        <ele>226.6</ele>
        <time>2019-02-15T14:23:03Z</time>
      </trkpt>
      <trkpt lat="43.45085" lon="6.38067">
        <ele>226.7</ele>
        <time>2019-02-15T14:23:10Z</time>
      </trkpt>
      <trkpt lat="43.45094" lon="6.38062">
        <ele>226.8</ele>
        <time>2019-02-15T14:23:17Z</time>
      </trkpt>
      <trkpt lat="43.45103" lon="6.38056">
        <ele>227.3</ele>
        <time>2019-02-15T14:23:25Z</time>
      </trkpt>
      <trkpt lat="43.45111" lon="6.38053">
        <ele>227.6</ele>
        <time>2019-02-15T14:23:33Z</time>
      </trkpt>
      <trkpt lat="43.4512" lon="6.38048">
        <ele>227.8</ele>
        <time>2019-02-15T14:23:41Z</time>
      </trkpt>
      <trkpt lat="43.4513" lon="6.38043">
        <ele>228.2</ele>
        <time>2019-02-15T14:23:50Z</time>
      </trkpt>
      <trkpt lat="43.45138" lon="6.38038">
        <ele>227.8</ele>
        <time>2019-02-15T14:23:58Z</time>
      </trkpt>
      <trkpt lat="43.45147" lon="6.38033">
        <ele>228.1</ele>
        <time>2019-02-15T14:24:05Z</time>
      </trkpt>
      <trkpt lat="43.45157" lon="6.3803">
        <ele>228.9</ele>
        <time>2019-02-15T14:24:13Z</time>
      </trkpt>
      <trkpt lat="43.45166" lon="6.38026">
        <ele>229.6</ele>
        <time>2019-02-15T14:24:20Z</time>
      </trkpt>
      <trkpt lat="43.45174" lon="6.3802">
        <ele>230.1</ele>
        <time>2019-02-15T14:24:28Z</time>
      </trkpt>
      <trkpt lat="43.45184" lon="6.38015">
        <ele>230.3</ele>
        <time>2019-02-15T14:24:37Z</time>
      </trkpt>
      <trkpt lat="43.45193" lon="6.38009">
        <ele>230.9</ele>
        <time>2019-02-15T14:24:47Z</time>
      </trkpt>
      <trkpt lat="43.45201" lon="6.38003">
        <ele>230.9</ele>
        <time>2019-02-15T14:24:55Z</time>
      </trkpt>
      <trkpt lat="43.4521" lon="6.37998">
        <ele>230.9</ele>
        <time>2019-02-15T14:25:03Z</time>
      </trkpt>
      <trkpt lat="43.45218" lon="6.37993">
        <ele>230.5</ele>
        <time>2019-02-15T14:25:11Z</time>
      </trkpt>
      <trkpt lat="43.45227" lon="6.37987">
        <ele>230.3</ele>
        <time>2019-02-15T14:25:19Z</time>
      </trkpt>
      <trkpt lat="43.45236" lon="6.37982">
        <ele>230.3</ele>
        <time>2019-02-15T14:25:28Z</time>
      </trkpt>
      <trkpt lat="43.45246" lon="6.37977">
        <ele>230.1</ele>
        <time>2019-02-15T14:25:37Z</time>
      </trkpt>
      <trkpt lat="43.45254" lon="6.37972">
        <ele>230.1</ele>
        <time>2019-02-15T14:25:45Z</time>
      </trkpt>
      <trkpt lat="43.45263" lon="6.37967">
        <ele>230.9</ele>
        <time>2019-02-15T14:25:53Z</time>
      </trkpt>
      <trkpt lat="43.45272" lon="6.37962">
        <ele>230.8</ele>
        <time>2019-02-15T14:26:00Z</time>
      </trkpt>
      <trkpt lat="43.4528" lon="6.37957">
        <ele>230.6</ele>
        <time>2019-02-15T14:26:08Z</time>
      </trkpt>
      <trkpt lat="43.45288" lon="6.37952">
        <ele>229.9</ele>
        <time>2019-02-15T14:26:16Z</time>
      </trkpt>
      <trkpt lat="43.45297" lon="6.37948">
        <ele>229.4</ele>
        <time>2019-02-15T14:26:24Z</time>
      </trkpt>
      <trkpt lat="43.45306" lon="6.37943">
        <ele>228.9</ele>
        <time>2019-02-15T14:26:31Z</time>
      </trkpt>
      <trkpt lat="43.45315" lon="6.37938">
        <ele>229.1</ele>
        <time>2019-02-15T14:26:39Z</time>
      </trkpt>
      <trkpt lat="43.45325" lon="6.37932">
        <ele>229.3</ele>
        <time>2019-02-15T14:26:47Z</time>
      </trkpt>
      <trkpt lat="43.45333" lon="6.37928">
        <ele>228.9</ele>
        <time>2019-02-15T14:26:55Z</time>
      </trkpt>
      <trkpt lat="43.45342" lon="6.37923">
        <ele>228.5</ele>
        <time>2019-02-15T14:27:03Z</time>
      </trkpt>
      <trkpt lat="43.45351" lon="6.37919">
        <ele>228.8</ele>
        <time>2019-02-15T14:27:11Z</time>
      </trkpt>
      <trkpt lat="43.4536" lon="6.37914">
        <ele>228.9</ele>
        <time>2019-02-15T14:27:19Z</time>
      </trkpt>
      <trkpt lat="43.45368" lon="6.37909">
        <ele>229</ele>
        <time>2019-02-15T14:27:27Z</time>
      </trkpt>
      <trkpt lat="43.45377" lon="6.37904">
        <ele>228.9</ele>
        <time>2019-02-15T14:27:35Z</time>
      </trkpt>
      <trkpt lat="43.45386" lon="6.37899">
        <ele>229.3</ele>
        <time>2019-02-15T14:27:43Z</time>
      </trkpt>
      <trkpt lat="43.45395" lon="6.37894">
        <ele>229.8</ele>
        <time>2019-02-15T14:27:51Z</time>
      </trkpt>
      <trkpt lat="43.45405" lon="6.37888">
        <ele>230.6</ele>
        <time>2019-02-15T14:27:59Z</time>
      </trkpt>
      <trkpt lat="43.45413" lon="6.37882">
        <ele>231.2</ele>
        <time>2019-02-15T14:28:07Z</time>
      </trkpt>
      <trkpt lat="43.45423" lon="6.3788">
        <ele>232.3</ele>
        <time>2019-02-15T14:28:30Z</time>
      </trkpt>
      <trkpt lat="43.45431" lon="6.37873">
        <ele>232.8</ele>
        <time>2019-02-15T14:28:39Z</time>
      </trkpt>
      <trkpt lat="43.45441" lon="6.37869">
        <ele>233.5</ele>
        <time>2019-02-15T14:28:48Z</time>
      </trkpt>
      <trkpt lat="43.4545" lon="6.37865">
        <ele>233.8</ele>
        <time>2019-02-15T14:28:56Z</time>
      </trkpt>
      <trkpt lat="43.45458" lon="6.37861">
        <ele>234</ele>
        <time>2019-02-15T14:29:04Z</time>
      </trkpt>
      <trkpt lat="43.45468" lon="6.37856">
        <ele>234.5</ele>
        <time>2019-02-15T14:29:13Z</time>
      </trkpt>
      <trkpt lat="43.45478" lon="6.3785">
        <ele>234.3</ele>
        <time>2019-02-15T14:29:22Z</time>
      </trkpt>
      <trkpt lat="43.45486" lon="6.37846">
        <ele>234.4</ele>
        <time>2019-02-15T14:29:30Z</time>
      </trkpt>
      <trkpt lat="43.45495" lon="6.37842">
        <ele>234.5</ele>
        <time>2019-02-15T14:29:38Z</time>
      </trkpt>
      <trkpt lat="43.45505" lon="6.37836">
        <ele>234.7</ele>
        <time>2019-02-15T14:29:46Z</time>
      </trkpt>
      <trkpt lat="43.45513" lon="6.37832">
        <ele>235.4</ele>
        <time>2019-02-15T14:29:53Z</time>
      </trkpt>
      <trkpt lat="43.45523" lon="6.3783">
        <ele>235.1</ele>
        <time>2019-02-15T14:30:01Z</time>
      </trkpt>
      <trkpt lat="43.45531" lon="6.37823">
        <ele>235.4</ele>
        <time>2019-02-15T14:30:08Z</time>
      </trkpt>
      <trkpt lat="43.45539" lon="6.37818">
        <ele>235.2</ele>
        <time>2019-02-15T14:30:15Z</time>
      </trkpt>
      <trkpt lat="43.45548" lon="6.37813">
        <ele>234.6</ele>
        <time>2019-02-15T14:30:24Z</time>
      </trkpt>
      <trkpt lat="43.45557" lon="6.37808">
        <ele>234.1</ele>
        <time>2019-02-15T14:30:32Z</time>
      </trkpt>
      <trkpt lat="43.45566" lon="6.37802">
        <ele>234.3</ele>
        <time>2019-02-15T14:30:40Z</time>
      </trkpt>
      <trkpt lat="43.45574" lon="6.37797">
        <ele>234.1</ele>
        <time>2019-02-15T14:30:48Z</time>
      </trkpt>
      <trkpt lat="43.45582" lon="6.37791">
        <ele>234.2</ele>
        <time>2019-02-15T14:30:56Z</time>
      </trkpt>
      <trkpt lat="43.45591" lon="6.37799">
        <ele>233.6</ele>
        <time>2019-02-15T14:31:49Z</time>
      </trkpt>
      <trkpt lat="43.45599" lon="6.37804">
        <ele>233.4</ele>
        <time>2019-02-15T14:31:57Z</time>
      </trkpt>
      <trkpt lat="43.45608" lon="6.37804">
        <ele>233.2</ele>
        <time>2019-02-15T14:32:18Z</time>
      </trkpt>
      <trkpt lat="43.45599" lon="6.37804">
        <ele>233.4</ele>
        <time>2019-02-15T14:33:40Z</time>
      </trkpt>
      <trkpt lat="43.45593" lon="6.37794">
        <ele>233.7</ele>
        <time>2019-02-15T14:33:51Z</time>
      </trkpt>
      <trkpt lat="43.45596" lon="6.37782">
        <ele>234.4</ele>
        <time>2019-02-15T14:34:13Z</time>
      </trkpt>
      <trkpt lat="43.45605" lon="6.37775">
        <ele>234.3</ele>
        <time>2019-02-15T14:34:22Z</time>
      </trkpt>
      <trkpt lat="43.45613" lon="6.37771">
        <ele>234.5</ele>
        <time>2019-02-15T14:34:30Z</time>
      </trkpt>
      <trkpt lat="43.45622" lon="6.37767">
        <ele>234.3</ele>
        <time>2019-02-15T14:34:38Z</time>
      </trkpt>
      <trkpt lat="43.45632" lon="6.37765">
        <ele>233.8</ele>
        <time>2019-02-15T14:34:48Z</time>
      </trkpt>
      <trkpt lat="43.45641" lon="6.37761">
        <ele>233.4</ele>
        <time>2019-02-15T14:34:56Z</time>
      </trkpt>
      <trkpt lat="43.45651" lon="6.3776">
        <ele>233</ele>
        <time>2019-02-15T14:35:05Z</time>
      </trkpt>
      <trkpt lat="43.4566" lon="6.37757">
        <ele>232.5</ele>
        <time>2019-02-15T14:35:12Z</time>
      </trkpt>
      <trkpt lat="43.45669" lon="6.37756">
        <ele>232</ele>
        <time>2019-02-15T14:35:22Z</time>
      </trkpt>
      <trkpt lat="43.45678" lon="6.37754">
        <ele>231.3</ele>
        <time>2019-02-15T14:35:31Z</time>
      </trkpt>
      <trkpt lat="43.45687" lon="6.37752">
        <ele>230.9</ele>
        <time>2019-02-15T14:35:39Z</time>
      </trkpt>
      <trkpt lat="43.45697" lon="6.37751">
        <ele>230.8</ele>
        <time>2019-02-15T14:35:49Z</time>
      </trkpt>
      <trkpt lat="43.45707" lon="6.37749">
        <ele>230.4</ele>
        <time>2019-02-15T14:35:57Z</time>
      </trkpt>
      <trkpt lat="43.45718" lon="6.37747">
        <ele>229.8</ele>
        <time>2019-02-15T14:36:06Z</time>
      </trkpt>
      <trkpt lat="43.45728" lon="6.37747">
        <ele>229.1</ele>
        <time>2019-02-15T14:36:14Z</time>
      </trkpt>
      <trkpt lat="43.45733" lon="6.37758">
        <ele>228.7</ele>
        <time>2019-02-15T14:36:28Z</time>
      </trkpt>
      <trkpt lat="43.45741" lon="6.37764">
        <ele>228.6</ele>
        <time>2019-02-15T14:36:38Z</time>
      </trkpt>
      <trkpt lat="43.4575" lon="6.37768">
        <ele>228.1</ele>
        <time>2019-02-15T14:36:48Z</time>
      </trkpt>
      <trkpt lat="43.45759" lon="6.37773">
        <ele>228.5</ele>
        <time>2019-02-15T14:36:59Z</time>
      </trkpt>
      <trkpt lat="43.45768" lon="6.37772">
        <ele>228.4</ele>
        <time>2019-02-15T14:37:09Z</time>
      </trkpt>
      <trkpt lat="43.45777" lon="6.37767">
        <ele>228.2</ele>
        <time>2019-02-15T14:37:39Z</time>
      </trkpt>
      <trkpt lat="43.45783" lon="6.37777">
        <ele>227.9</ele>
        <time>2019-02-15T14:38:58Z</time>
      </trkpt>
      <trkpt lat="43.4579" lon="6.37787">
        <ele>227.7</ele>
        <time>2019-02-15T14:39:05Z</time>
      </trkpt>
      <trkpt lat="43.45795" lon="6.37798">
        <ele>227.7</ele>
        <time>2019-02-15T14:39:12Z</time>
      </trkpt>
      <trkpt lat="43.45799" lon="6.37809">
        <ele>227.4</ele>
        <time>2019-02-15T14:39:19Z</time>
      </trkpt>
      <trkpt lat="43.45805" lon="6.3782">
        <ele>227</ele>
        <time>2019-02-15T14:39:27Z</time>
      </trkpt>
      <trkpt lat="43.45811" lon="6.37829">
        <ele>226.7</ele>
        <time>2019-02-15T14:39:35Z</time>
      </trkpt>
      <trkpt lat="43.45821" lon="6.37832">
        <ele>226.5</ele>
        <time>2019-02-15T14:39:45Z</time>
      </trkpt>
      <trkpt lat="43.45831" lon="6.37829">
        <ele>226.3</ele>
        <time>2019-02-15T14:39:53Z</time>
      </trkpt>
      <trkpt lat="43.45839" lon="6.37824">
        <ele>225.9</ele>
        <time>2019-02-15T14:40:02Z</time>
      </trkpt>
      <trkpt lat="43.45848" lon="6.37819">
        <ele>225.3</ele>
        <time>2019-02-15T14:40:10Z</time>
      </trkpt>
      <trkpt lat="43.45856" lon="6.37813">
        <ele>225.3</ele>
        <time>2019-02-15T14:40:17Z</time>
      </trkpt>
      <trkpt lat="43.45863" lon="6.37805">
        <ele>225.2</ele>
        <time>2019-02-15T14:40:26Z</time>
      </trkpt>
      <trkpt lat="43.45873" lon="6.37807">
        <ele>224.5</ele>
        <time>2019-02-15T14:40:36Z</time>
      </trkpt>
      <trkpt lat="43.4588" lon="6.37815">
        <ele>223.4</ele>
        <time>2019-02-15T14:40:45Z</time>
      </trkpt>
      <trkpt lat="43.45886" lon="6.37824">
        <ele>222.5</ele>
        <time>2019-02-15T14:40:54Z</time>
      </trkpt>
      <trkpt lat="43.45892" lon="6.37834">
        <ele>220.9</ele>
        <time>2019-02-15T14:41:03Z</time>
      </trkpt>
      <trkpt lat="43.45899" lon="6.37843">
        <ele>219.4</ele>
        <time>2019-02-15T14:41:12Z</time>
      </trkpt>
      <trkpt lat="43.45905" lon="6.37852">
        <ele>218.1</ele>
        <time>2019-02-15T14:41:21Z</time>
      </trkpt>
      <trkpt lat="43.4591" lon="6.37863">
        <ele>217.5</ele>
        <time>2019-02-15T14:41:30Z</time>
      </trkpt>
      <trkpt lat="43.45915" lon="6.37873">
        <ele>216.5</ele>
        <time>2019-02-15T14:41:38Z</time>
      </trkpt>
      <trkpt lat="43.45909" lon="6.37882">
        <ele>215.1</ele>
        <time>2019-02-15T14:41:49Z</time>
      </trkpt>
      <trkpt lat="43.45901" lon="6.37888">
        <ele>213.9</ele>
        <time>2019-02-15T14:41:59Z</time>
      </trkpt>
      <trkpt lat="43.45892" lon="6.37896">
        <ele>213.2</ele>
        <time>2019-02-15T14:42:08Z</time>
      </trkpt>
      <trkpt lat="43.45883" lon="6.37902">
        <ele>212.5</ele>
        <time>2019-02-15T14:42:17Z</time>
      </trkpt>
      <trkpt lat="43.45876" lon="6.3791">
        <ele>211.9</ele>
        <time>2019-02-15T14:42:25Z</time>
      </trkpt>
      <trkpt lat="43.45872" lon="6.37923">
        <ele>211.5</ele>
        <time>2019-02-15T14:42:33Z</time>
      </trkpt>
      <trkpt lat="43.45878" lon="6.37932">
        <ele>210</ele>
        <time>2019-02-15T14:42:42Z</time>
      </trkpt>
      <trkpt lat="43.45883" lon="6.37944">
        <ele>209.2</ele>
        <time>2019-02-15T14:42:51Z</time>
      </trkpt>
      <trkpt lat="43.45889" lon="6.37955">
        <ele>208.5</ele>
        <time>2019-02-15T14:43:00Z</time>
      </trkpt>
      <trkpt lat="43.45896" lon="6.37964">
        <ele>208.2</ele>
        <time>2019-02-15T14:43:08Z</time>
      </trkpt>
      <trkpt lat="43.45902" lon="6.37973">
        <ele>208</ele>
        <time>2019-02-15T14:43:17Z</time>
      </trkpt>
      <trkpt lat="43.45907" lon="6.37983">
        <ele>207.4</ele>
        <time>2019-02-15T14:43:25Z</time>
      </trkpt>
      <trkpt lat="43.45912" lon="6.37994">
        <ele>207</ele>
        <time>2019-02-15T14:43:33Z</time>
      </trkpt>
      <trkpt lat="43.45918" lon="6.38005">
        <ele>206.6</ele>
        <time>2019-02-15T14:43:41Z</time>
      </trkpt>
      <trkpt lat="43.45925" lon="6.38014">
        <ele>206.2</ele>
        <time>2019-02-15T14:43:49Z</time>
      </trkpt>
      <trkpt lat="43.4593" lon="6.38025">
        <ele>206.1</ele>
        <time>2019-02-15T14:43:58Z</time>
      </trkpt>
      <trkpt lat="43.45938" lon="6.38032">
        <ele>206.9</ele>
        <time>2019-02-15T14:44:08Z</time>
      </trkpt>
      <trkpt lat="43.45941" lon="6.38044">
        <ele>208</ele>
        <time>2019-02-15T14:44:18Z</time>
      </trkpt>
      <trkpt lat="43.45947" lon="6.38054">
        <ele>209.5</ele>
        <time>2019-02-15T14:44:28Z</time>
      </trkpt>
      <trkpt lat="43.45953" lon="6.38064">
        <ele>211.3</ele>
        <time>2019-02-15T14:44:40Z</time>
      </trkpt>
      <trkpt lat="43.4596" lon="6.38074">
        <ele>212.4</ele>
        <time>2019-02-15T14:44:51Z</time>
      </trkpt>
      <trkpt lat="43.45966" lon="6.38084">
        <ele>214.1</ele>
        <time>2019-02-15T14:45:03Z</time>
      </trkpt>
      <trkpt lat="43.45972" lon="6.38093">
        <ele>215.3</ele>
        <time>2019-02-15T14:45:14Z</time>
      </trkpt>
      <trkpt lat="43.45981" lon="6.381">
        <ele>216.7</ele>
        <time>2019-02-15T14:45:24Z</time>
      </trkpt>
      <trkpt lat="43.45989" lon="6.38105">
        <ele>217.7</ele>
        <time>2019-02-15T14:45:36Z</time>
      </trkpt>
      <trkpt lat="43.45995" lon="6.38095">
        <ele>217.3</ele>
        <time>2019-02-15T14:45:46Z</time>
      </trkpt>
      <trkpt lat="43.46001" lon="6.38084">
        <ele>218.2</ele>
        <time>2019-02-15T14:45:56Z</time>
      </trkpt>
      <trkpt lat="43.46008" lon="6.38077">
        <ele>218.2</ele>
        <time>2019-02-15T14:46:04Z</time>
      </trkpt>
      <trkpt lat="43.46015" lon="6.38067">
        <ele>219.1</ele>
        <time>2019-02-15T14:46:15Z</time>
      </trkpt>
      <trkpt lat="43.46022" lon="6.38058">
        <ele>219.3</ele>
        <time>2019-02-15T14:46:25Z</time>
      </trkpt>
      <trkpt lat="43.46026" lon="6.38046">
        <ele>219.4</ele>
        <time>2019-02-15T14:46:35Z</time>
      </trkpt>
      <trkpt lat="43.46035" lon="6.38038">
        <ele>219</ele>
        <time>2019-02-15T14:46:44Z</time>
      </trkpt>
      <trkpt lat="43.46042" lon="6.3803">
        <ele>219.1</ele>
        <time>2019-02-15T14:46:53Z</time>
      </trkpt>
      <trkpt lat="43.46048" lon="6.38021">
        <ele>218.9</ele>
        <time>2019-02-15T14:47:01Z</time>
      </trkpt>
      <trkpt lat="43.46048" lon="6.38008">
        <ele>218.5</ele>
        <time>2019-02-15T14:47:12Z</time>
      </trkpt>
      <trkpt lat="43.46051" lon="6.37995">
        <ele>217.5</ele>
        <time>2019-02-15T14:47:28Z</time>
      </trkpt>
      <trkpt lat="43.46057" lon="6.37986">
        <ele>217.1</ele>
        <time>2019-02-15T14:47:37Z</time>
      </trkpt>
      <trkpt lat="43.46062" lon="6.37975">
        <ele>216.8</ele>
        <time>2019-02-15T14:47:47Z</time>
      </trkpt>
      <trkpt lat="43.4607" lon="6.37969">
        <ele>215.9</ele>
        <time>2019-02-15T14:47:56Z</time>
      </trkpt>
      <trkpt lat="43.46077" lon="6.37978">
        <ele>214.9</ele>
        <time>2019-02-15T14:50:59Z</time>
      </trkpt>
      <trkpt lat="43.4608" lon="6.3799">
        <ele>215.4</ele>
        <time>2019-02-15T14:51:06Z</time>
      </trkpt>
      <trkpt lat="43.46084" lon="6.38002">
        <ele>215.7</ele>
        <time>2019-02-15T14:51:15Z</time>
      </trkpt>
      <trkpt lat="43.4609" lon="6.38013">
        <ele>215.6</ele>
        <time>2019-02-15T14:51:24Z</time>
      </trkpt>
      <trkpt lat="43.46096" lon="6.38023">
        <ele>215.6</ele>
        <time>2019-02-15T14:51:32Z</time>
      </trkpt>
      <trkpt lat="43.46103" lon="6.38032">
        <ele>215</ele>
        <time>2019-02-15T14:51:41Z</time>
      </trkpt>
      <trkpt lat="43.46111" lon="6.38039">
        <ele>214.3</ele>
        <time>2019-02-15T14:51:49Z</time>
      </trkpt>
      <trkpt lat="43.46119" lon="6.38047">
        <ele>212.1</ele>
        <time>2019-02-15T14:51:58Z</time>
      </trkpt>
      <trkpt lat="43.46127" lon="6.38053">
        <ele>210.6</ele>
        <time>2019-02-15T14:52:06Z</time>
      </trkpt>
      <trkpt lat="43.46135" lon="6.3806">
        <ele>209.5</ele>
        <time>2019-02-15T14:52:14Z</time>
      </trkpt>
      <trkpt lat="43.46142" lon="6.38068">
        <ele>208.7</ele>
        <time>2019-02-15T14:52:22Z</time>
      </trkpt>
      <trkpt lat="43.4615" lon="6.38076">
        <ele>208.2</ele>
        <time>2019-02-15T14:52:31Z</time>
      </trkpt>
      <trkpt lat="43.46157" lon="6.38084">
        <ele>208.6</ele>
        <time>2019-02-15T14:52:40Z</time>
      </trkpt>
      <trkpt lat="43.46159" lon="6.38086">
        <ele>208.8</ele>
        <time>2019-02-15T14:52:43Z</time>
      </trkpt>
    </trkseg>
  </trk>
</gpx>